sensor_id;sensor_type;location;lat;lon;timestamp;P1;durP1;ratioP1;P2;durP2;ratioP2
66542;SDS011;53395;37.360;-122.046;2022-11-11T00:01:20;2.60;;;1.85;;
66542;SDS011;53395;37.360;-122.046;2022-11-11T00:03:47;2.03;;;1.75;;
66542;SDS011;53395;37.360;-122.046;2022-11-11T00:06:14;4.30;;;2.05;;
66542;SDS011;53395;37.360;-122.046;2022-11-11T00:08:41;4.70;;;1.75;;
66542;SDS011;53395;37.360;-122.046;2022-11-11T00:11:12;3.85;;;1.88;;
66542;SDS011;53395;37.360;-122.046;2022-11-11T00:13:39;4.10;;;2.17;;
66542;SDS011;53395;37.360;-122.046;2022-11-11T00:16:11;4.05;;;1.80;;
66542;SDS011;53395;37.360;-122.046;2022-11-11T00:18:41;2.42;;;1.73;;
66542;SDS011;53395;37.360;-122.046;2022-11-11T00:21:27;5.40;;;1.67;;
66542;SDS011;53395;37.360;-122.046;2022-11-11T00:27:02;2.05;;;1.33;;
66542;SDS011;53395;37.360;-122.046;2022-11-11T00:29:30;2.85;;;1.38;;
66542;SDS011;53395;37.360;-122.046;2022-11-11T00:31:56;3.25;;;1.83;;
66542;SDS011;53395;37.360;-122.046;2022-11-11T00:34:42;2.17;;;1.55;;
66542;SDS011;53395;37.360;-122.046;2022-11-11T00:37:28;3.00;;;1.25;;
66542;SDS011;53395;37.360;-122.046;2022-11-11T00:39:55;2.63;;;2.22;;
66542;SDS011;53395;37.360;-122.046;2022-11-11T00:42:21;4.38;;;2.60;;
66542;SDS011;53395;37.360;-122.046;2022-11-11T00:44:47;2.35;;;1.20;;
66542;SDS011;53395;37.360;-122.046;2022-11-11T00:47:13;2.75;;;1.40;;
66542;SDS011;53395;37.360;-122.046;2022-11-11T00:49:58;4.63;;;3.25;;
66542;SDS011;53395;37.360;-122.046;2022-11-11T00:52:46;2.25;;;1.90;;
66542;SDS011;53395;37.360;-122.046;2022-11-11T00:55:21;7.00;;;1.55;;
66542;SDS011;53395;37.360;-122.046;2022-11-11T00:57:48;2.85;;;1.48;;
66542;SDS011;53395;37.360;-122.046;2022-11-11T01:00:14;3.55;;;1.65;;
66542;SDS011;53395;37.360;-122.046;2022-11-11T01:02:40;2.40;;;1.52;;
66542;SDS011;53395;37.360;-122.046;2022-11-11T01:05:06;2.58;;;1.48;;
66542;SDS011;53395;37.360;-122.046;2022-11-11T01:07:33;2.88;;;1.42;;
66542;SDS011;53395;37.360;-122.046;2022-11-11T01:09:59;2.05;;;1.35;;
66542;SDS011;53395;37.360;-122.046;2022-11-11T01:12:25;3.50;;;1.33;;
66542;SDS011;53395;37.360;-122.046;2022-11-11T01:14:51;3.72;;;1.48;;
66542;SDS011;53395;37.360;-122.046;2022-11-11T01:17:18;3.38;;;1.63;;
66542;SDS011;53395;37.360;-122.046;2022-11-11T01:22:10;2.13;;;1.20;;
66542;SDS011;53395;37.360;-122.046;2022-11-11T01:24:36;3.85;;;1.60;;
66542;SDS011;53395;37.360;-122.046;2022-11-11T01:27:03;2.15;;;1.45;;
66542;SDS011;53395;37.360;-122.046;2022-11-11T01:29:29;3.78;;;2.50;;
66542;SDS011;53395;37.360;-122.046;2022-11-11T01:31:55;1.98;;;1.35;;
66542;SDS011;53395;37.360;-122.046;2022-11-11T01:34:21;3.70;;;1.48;;
66542;SDS011;53395;37.360;-122.046;2022-11-11T01:36:47;3.75;;;1.70;;
66542;SDS011;53395;37.360;-122.046;2022-11-11T01:39:14;2.53;;;1.80;;
66542;SDS011;53395;37.360;-122.046;2022-11-11T01:41:40;3.97;;;1.88;;
66542;SDS011;53395;37.360;-122.046;2022-11-11T01:46:51;3.00;;;1.70;;
66542;SDS011;53395;37.360;-122.046;2022-11-11T01:54:45;3.65;;;1.67;;
66542;SDS011;53395;37.360;-122.046;2022-11-11T02:00:15;13.18;;;8.60;;
66542;SDS011;53395;37.360;-122.046;2022-11-11T02:02:54;3.70;;;1.90;;
66542;SDS011;53395;37.360;-122.046;2022-11-11T02:05:23;3.22;;;1.52;;
66542;SDS011;53395;37.360;-122.046;2022-11-11T02:11:17;5.35;;;1.63;;
66542;SDS011;53395;37.360;-122.046;2022-11-11T02:14:04;2.70;;;1.45;;
66542;SDS011;53395;37.360;-122.046;2022-11-11T02:16:49;5.78;;;1.67;;
66542;SDS011;53395;37.360;-122.046;2022-11-11T02:19:17;6.70;;;1.67;;
66542;SDS011;53395;37.360;-122.046;2022-11-11T02:21:58;3.70;;;1.48;;
66542;SDS011;53395;37.360;-122.046;2022-11-11T02:24:27;3.90;;;1.80;;
66542;SDS011;53395;37.360;-122.046;2022-11-11T02:26:56;5.03;;;1.80;;
66542;SDS011;53395;37.360;-122.046;2022-11-11T02:29:23;3.35;;;1.35;;
66542;SDS011;53395;37.360;-122.046;2022-11-11T02:31:50;3.95;;;1.88;;
66542;SDS011;53395;37.360;-122.046;2022-11-11T02:34:17;5.43;;;1.70;;
66542;SDS011;53395;37.360;-122.046;2022-11-11T02:36:43;3.05;;;1.73;;
66542;SDS011;53395;37.360;-122.046;2022-11-11T02:39:10;4.75;;;2.22;;
66542;SDS011;53395;37.360;-122.046;2022-11-11T02:41:36;4.53;;;1.70;;
66542;SDS011;53395;37.360;-122.046;2022-11-11T02:44:21;3.58;;;2.20;;
66542;SDS011;53395;37.360;-122.046;2022-11-11T02:46:47;3.58;;;2.00;;
66542;SDS011;53395;37.360;-122.046;2022-11-11T02:49:14;4.07;;;1.70;;
66542;SDS011;53395;37.360;-122.046;2022-11-11T02:51:40;3.03;;;1.58;;
66542;SDS011;53395;37.360;-122.046;2022-11-11T02:54:06;4.60;;;1.92;;
66542;SDS011;53395;37.360;-122.046;2022-11-11T02:56:33;4.53;;;2.40;;
66542;SDS011;53395;37.360;-122.046;2022-11-11T02:59:17;3.22;;;1.67;;
66542;SDS011;53395;37.360;-122.046;2022-11-11T03:01:46;5.32;;;4.30;;
66542;SDS011;53395;37.360;-122.046;2022-11-11T03:04:12;6.65;;;2.10;;
66542;SDS011;53395;37.360;-122.046;2022-11-11T03:06:38;4.88;;;1.98;;
66542;SDS011;53395;37.360;-122.046;2022-11-11T03:09:05;5.05;;;1.85;;
66542;SDS011;53395;37.360;-122.046;2022-11-11T03:11:31;5.93;;;1.77;;
66542;SDS011;53395;37.360;-122.046;2022-11-11T03:13:59;4.65;;;1.90;;
66542;SDS011;53395;37.360;-122.046;2022-11-11T03:16:25;3.15;;;1.70;;
66542;SDS011;53395;37.360;-122.046;2022-11-11T03:19:10;2.80;;;2.00;;
66542;SDS011;53395;37.360;-122.046;2022-11-11T03:21:37;4.18;;;1.67;;
66542;SDS011;53395;37.360;-122.046;2022-11-11T03:24:06;3.15;;;1.73;;
66542;SDS011;53395;37.360;-122.046;2022-11-11T03:26:33;3.35;;;1.88;;
66542;SDS011;53395;37.360;-122.046;2022-11-11T03:28:59;4.60;;;2.15;;
66542;SDS011;53395;37.360;-122.046;2022-11-11T03:31:25;4.90;;;2.42;;
66542;SDS011;53395;37.360;-122.046;2022-11-11T03:33:52;5.65;;;2.17;;
66542;SDS011;53395;37.360;-122.046;2022-11-11T03:36:18;5.50;;;2.13;;
66542;SDS011;53395;37.360;-122.046;2022-11-11T03:38:44;3.50;;;2.20;;
66542;SDS011;53395;37.360;-122.046;2022-11-11T03:41:10;5.15;;;2.20;;
66542;SDS011;53395;37.360;-122.046;2022-11-11T03:43:36;4.25;;;2.50;;
66542;SDS011;53395;37.360;-122.046;2022-11-11T03:46:04;5.90;;;2.20;;
66542;SDS011;53395;37.360;-122.046;2022-11-11T03:48:31;5.35;;;2.22;;
66542;SDS011;53395;37.360;-122.046;2022-11-11T03:50:58;4.32;;;2.25;;
66542;SDS011;53395;37.360;-122.046;2022-11-11T03:53:24;4.35;;;2.20;;
66542;SDS011;53395;37.360;-122.046;2022-11-11T03:55:51;4.32;;;1.83;;
66542;SDS011;53395;37.360;-122.046;2022-11-11T03:58:17;4.90;;;2.03;;
66542;SDS011;53395;37.360;-122.046;2022-11-11T04:05:56;2.80;;;1.90;;
66542;SDS011;53395;37.360;-122.046;2022-11-11T04:08:41;4.35;;;2.38;;
66542;SDS011;53395;37.360;-122.046;2022-11-11T04:11:27;3.25;;;2.05;;
66542;SDS011;53395;37.360;-122.046;2022-11-11T04:13:57;5.88;;;2.30;;
66542;SDS011;53395;37.360;-122.046;2022-11-11T04:16:44;5.57;;;2.38;;
66542;SDS011;53395;37.360;-122.046;2022-11-11T04:19:10;8.00;;;2.50;;
66542;SDS011;53395;37.360;-122.046;2022-11-11T04:21:55;6.20;;;2.28;;
66542;SDS011;53395;37.360;-122.046;2022-11-11T04:24:21;4.20;;;2.20;;
66542;SDS011;53395;37.360;-122.046;2022-11-11T04:27:07;3.60;;;2.28;;
66542;SDS011;53395;37.360;-122.046;2022-11-11T04:29:35;4.28;;;2.15;;
66542;SDS011;53395;37.360;-122.046;2022-11-11T04:32:03;3.22;;;1.95;;
66542;SDS011;53395;37.360;-122.046;2022-11-11T04:34:55;5.80;;;2.20;;
66542;SDS011;53395;37.360;-122.046;2022-11-11T04:37:24;3.72;;;2.03;;
66542;SDS011;53395;37.360;-122.046;2022-11-11T04:39:52;3.90;;;2.40;;
66542;SDS011;53395;37.360;-122.046;2022-11-11T04:42:37;4.25;;;2.05;;
66542;SDS011;53395;37.360;-122.046;2022-11-11T04:45:04;11.05;;;4.60;;
66542;SDS011;53395;37.360;-122.046;2022-11-11T04:53:12;4.72;;;1.92;;
66542;SDS011;53395;37.360;-122.046;2022-11-11T04:55:39;3.55;;;1.85;;
66542;SDS011;53395;37.360;-122.046;2022-11-11T04:58:26;2.85;;;1.75;;
66542;SDS011;53395;37.360;-122.046;2022-11-11T05:00:54;3.92;;;2.10;;
66542;SDS011;53395;37.360;-122.046;2022-11-11T05:03:20;4.63;;;1.90;;
66542;SDS011;53395;37.360;-122.046;2022-11-11T05:05:50;3.80;;;1.90;;
66542;SDS011;53395;37.360;-122.046;2022-11-11T05:08:36;6.63;;;1.98;;
66542;SDS011;53395;37.360;-122.046;2022-11-11T05:11:33;5.18;;;2.03;;
66542;SDS011;53395;37.360;-122.046;2022-11-11T05:14:01;4.03;;;2.40;;
66542;SDS011;53395;37.360;-122.046;2022-11-11T05:16:51;4.97;;;1.80;;
66542;SDS011;53395;37.360;-122.046;2022-11-11T05:19:37;7.30;;;2.40;;
66542;SDS011;53395;37.360;-122.046;2022-11-11T05:22:32;3.35;;;1.80;;
66542;SDS011;53395;37.360;-122.046;2022-11-11T05:25:00;6.65;;;2.42;;
66542;SDS011;53395;37.360;-122.046;2022-11-11T05:27:45;4.20;;;1.73;;
66542;SDS011;53395;37.360;-122.046;2022-11-11T05:30:12;4.13;;;2.10;;
66542;SDS011;53395;37.360;-122.046;2022-11-11T05:32:39;5.45;;;1.83;;
66542;SDS011;53395;37.360;-122.046;2022-11-11T05:37:32;5.40;;;2.05;;
66542;SDS011;53395;37.360;-122.046;2022-11-11T05:39:59;3.42;;;1.73;;
66542;SDS011;53395;37.360;-122.046;2022-11-11T05:42:25;3.28;;;1.77;;
66542;SDS011;53395;37.360;-122.046;2022-11-11T05:44:51;4.22;;;1.80;;
66542;SDS011;53395;37.360;-122.046;2022-11-11T05:47:18;7.90;;;2.10;;
66542;SDS011;53395;37.360;-122.046;2022-11-11T05:49:44;5.15;;;1.70;;
66542;SDS011;53395;37.360;-122.046;2022-11-11T05:52:11;4.78;;;2.10;;
66542;SDS011;53395;37.360;-122.046;2022-11-11T05:54:38;6.53;;;2.00;;
66542;SDS011;53395;37.360;-122.046;2022-11-11T05:57:04;4.85;;;2.15;;
66542;SDS011;53395;37.360;-122.046;2022-11-11T05:59:31;3.78;;;1.90;;
66542;SDS011;53395;37.360;-122.046;2022-11-11T06:01:57;3.50;;;1.92;;
66542;SDS011;53395;37.360;-122.046;2022-11-11T06:04:23;3.47;;;1.63;;
66542;SDS011;53395;37.360;-122.046;2022-11-11T06:06:50;4.90;;;1.90;;
66542;SDS011;53395;37.360;-122.046;2022-11-11T06:09:16;3.13;;;1.67;;
66542;SDS011;53395;37.360;-122.046;2022-11-11T06:11:43;2.30;;;1.30;;
66542;SDS011;53395;37.360;-122.046;2022-11-11T06:14:10;4.10;;;1.40;;
66542;SDS011;53395;37.360;-122.046;2022-11-11T06:16:36;4.95;;;1.80;;
66542;SDS011;53395;37.360;-122.046;2022-11-11T06:19:02;4.70;;;2.10;;
66542;SDS011;53395;37.360;-122.046;2022-11-11T06:21:29;6.90;;;1.98;;
66542;SDS011;53395;37.360;-122.046;2022-11-11T06:24:16;2.50;;;1.60;;
66542;SDS011;53395;37.360;-122.046;2022-11-11T06:26:42;5.05;;;1.77;;
66542;SDS011;53395;37.360;-122.046;2022-11-11T06:29:08;3.70;;;1.75;;
66542;SDS011;53395;37.360;-122.046;2022-11-11T06:31:34;3.35;;;1.42;;
66542;SDS011;53395;37.360;-122.046;2022-11-11T06:34:00;3.67;;;1.67;;
66542;SDS011;53395;37.360;-122.046;2022-11-11T06:36:27;4.00;;;1.60;;
66542;SDS011;53395;37.360;-122.046;2022-11-11T06:38:53;3.63;;;1.63;;
66542;SDS011;53395;37.360;-122.046;2022-11-11T06:41:19;6.05;;;2.05;;
66542;SDS011;53395;37.360;-122.046;2022-11-11T06:43:48;6.70;;;2.08;;
66542;SDS011;53395;37.360;-122.046;2022-11-11T06:46:21;3.47;;;1.73;;
66542;SDS011;53395;37.360;-122.046;2022-11-11T06:48:49;4.22;;;1.75;;
66542;SDS011;53395;37.360;-122.046;2022-11-11T06:51:16;3.22;;;1.70;;
66542;SDS011;53395;37.360;-122.046;2022-11-11T06:53:43;3.13;;;1.90;;
66542;SDS011;53395;37.360;-122.046;2022-11-11T06:56:09;3.90;;;1.90;;
66542;SDS011;53395;37.360;-122.046;2022-11-11T06:58:38;3.88;;;1.90;;
66542;SDS011;53395;37.360;-122.046;2022-11-11T07:01:05;4.63;;;1.88;;
66542;SDS011;53395;37.360;-122.046;2022-11-11T07:03:33;4.53;;;1.70;;
66542;SDS011;53395;37.360;-122.046;2022-11-11T07:06:00;3.53;;;2.05;;
66542;SDS011;53395;37.360;-122.046;2022-11-11T07:08:28;7.55;;;1.83;;
66542;SDS011;53395;37.360;-122.046;2022-11-11T07:10:54;3.97;;;2.15;;
66542;SDS011;53395;37.360;-122.046;2022-11-11T07:13:20;3.20;;;2.05;;
66542;SDS011;53395;37.360;-122.046;2022-11-11T07:15:46;3.38;;;1.90;;
66542;SDS011;53395;37.360;-122.046;2022-11-11T07:18:13;4.10;;;1.85;;
66542;SDS011;53395;37.360;-122.046;2022-11-11T07:20:39;2.40;;;1.63;;
66542;SDS011;53395;37.360;-122.046;2022-11-11T07:23:06;4.35;;;2.00;;
66542;SDS011;53395;37.360;-122.046;2022-11-11T07:30:25;4.38;;;1.73;;
66542;SDS011;53395;37.360;-122.046;2022-11-11T07:32:51;3.17;;;1.80;;
66542;SDS011;53395;37.360;-122.046;2022-11-11T07:37:44;2.97;;;1.90;;
66542;SDS011;53395;37.360;-122.046;2022-11-11T07:40:12;4.13;;;1.80;;
66542;SDS011;53395;37.360;-122.046;2022-11-11T07:42:40;3.53;;;2.20;;
66542;SDS011;53395;37.360;-122.046;2022-11-11T07:45:07;3.92;;;2.00;;
66542;SDS011;53395;37.360;-122.046;2022-11-11T07:47:36;4.00;;;1.55;;
66542;SDS011;53395;37.360;-122.046;2022-11-11T07:50:02;3.25;;;1.80;;
66542;SDS011;53395;37.360;-122.046;2022-11-11T07:52:30;7.57;;;1.77;;
66542;SDS011;53395;37.360;-122.046;2022-11-11T07:54:56;3.72;;;2.05;;
66542;SDS011;53395;37.360;-122.046;2022-11-11T07:57:23;2.85;;;1.52;;
66542;SDS011;53395;37.360;-122.046;2022-11-11T07:59:49;4.55;;;2.40;;
66542;SDS011;53395;37.360;-122.046;2022-11-11T08:02:15;4.78;;;2.25;;
66542;SDS011;53395;37.360;-122.046;2022-11-11T08:04:42;5.07;;;1.60;;
66542;SDS011;53395;37.360;-122.046;2022-11-11T08:07:08;6.82;;;1.70;;
66542;SDS011;53395;37.360;-122.046;2022-11-11T08:09:35;6.88;;;1.88;;
66542;SDS011;53395;37.360;-122.046;2022-11-11T08:12:01;3.38;;;1.73;;
66542;SDS011;53395;37.360;-122.046;2022-11-11T08:14:45;5.35;;;1.73;;
66542;SDS011;53395;37.360;-122.046;2022-11-11T08:17:11;5.13;;;1.80;;
66542;SDS011;53395;37.360;-122.046;2022-11-11T08:19:37;5.50;;;1.73;;
66542;SDS011;53395;37.360;-122.046;2022-11-11T08:22:04;3.28;;;1.73;;
66542;SDS011;53395;37.360;-122.046;2022-11-11T08:24:30;3.05;;;1.73;;
66542;SDS011;53395;37.360;-122.046;2022-11-11T08:26:56;3.10;;;1.60;;
66542;SDS011;53395;37.360;-122.046;2022-11-11T08:29:22;2.90;;;1.45;;
66542;SDS011;53395;37.360;-122.046;2022-11-11T08:31:50;2.90;;;1.50;;
66542;SDS011;53395;37.360;-122.046;2022-11-11T08:34:17;2.80;;;1.88;;
66542;SDS011;53395;37.360;-122.046;2022-11-11T08:36:43;2.67;;;1.52;;
66542;SDS011;53395;37.360;-122.046;2022-11-11T08:39:10;3.10;;;1.60;;
66542;SDS011;53395;37.360;-122.046;2022-11-11T08:41:36;5.80;;;1.60;;
66542;SDS011;53395;37.360;-122.046;2022-11-11T08:44:02;3.38;;;1.67;;
66542;SDS011;53395;37.360;-122.046;2022-11-11T08:46:29;3.03;;;1.80;;
66542;SDS011;53395;37.360;-122.046;2022-11-11T08:48:55;4.32;;;1.60;;
66542;SDS011;53395;37.360;-122.046;2022-11-11T08:51:21;3.20;;;1.48;;
66542;SDS011;53395;37.360;-122.046;2022-11-11T08:53:47;4.82;;;2.20;;
66542;SDS011;53395;37.360;-122.046;2022-11-11T08:56:14;4.22;;;1.67;;
66542;SDS011;53395;37.360;-122.046;2022-11-11T08:58:40;4.10;;;1.92;;
66542;SDS011;53395;37.360;-122.046;2022-11-11T09:01:10;4.72;;;1.92;;
66542;SDS011;53395;37.360;-122.046;2022-11-11T09:03:38;5.22;;;1.60;;
66542;SDS011;53395;37.360;-122.046;2022-11-11T09:06:07;5.22;;;1.80;;
66542;SDS011;53395;37.360;-122.046;2022-11-11T09:11:00;2.22;;;1.30;;
66542;SDS011;53395;37.360;-122.046;2022-11-11T09:13:26;6.82;;;1.60;;
66542;SDS011;53395;37.360;-122.046;2022-11-11T09:15:53;5.10;;;1.80;;
66542;SDS011;53395;37.360;-122.046;2022-11-11T09:20:45;4.55;;;1.45;;
66542;SDS011;53395;37.360;-122.046;2022-11-11T09:23:11;3.30;;;1.60;;
66542;SDS011;53395;37.360;-122.046;2022-11-11T09:25:38;3.83;;;1.60;;
66542;SDS011;53395;37.360;-122.046;2022-11-11T09:28:04;5.47;;;1.92;;
66542;SDS011;53395;37.360;-122.046;2022-11-11T09:30:30;2.83;;;1.60;;
66542;SDS011;53395;37.360;-122.046;2022-11-11T09:33:02;4.40;;;1.73;;
66542;SDS011;53395;37.360;-122.046;2022-11-11T09:35:29;3.67;;;1.67;;
66542;SDS011;53395;37.360;-122.046;2022-11-11T09:37:57;3.97;;;1.50;;
66542;SDS011;53395;37.360;-122.046;2022-11-11T09:40:26;3.50;;;1.80;;
66542;SDS011;53395;37.360;-122.046;2022-11-11T09:50:58;3.45;;;1.52;;
66542;SDS011;53395;37.360;-122.046;2022-11-11T09:56:05;5.70;;;2.75;;
66542;SDS011;53395;37.360;-122.046;2022-11-11T09:58:49;4.03;;;1.52;;
66542;SDS011;53395;37.360;-122.046;2022-11-11T10:01:19;3.15;;;1.60;;
66542;SDS011;53395;37.360;-122.046;2022-11-11T10:06:49;2.92;;;1.55;;
66542;SDS011;53395;37.360;-122.046;2022-11-11T10:09:41;3.47;;;1.50;;
66542;SDS011;53395;37.360;-122.046;2022-11-11T10:12:15;3.00;;;1.67;;
66542;SDS011;53395;37.360;-122.046;2022-11-11T10:14:42;3.97;;;1.83;;
66542;SDS011;53395;37.360;-122.046;2022-11-11T10:23:12;2.17;;;1.50;;
66542;SDS011;53395;37.360;-122.046;2022-11-11T10:25:45;3.03;;;1.85;;
66542;SDS011;53395;37.360;-122.046;2022-11-11T10:28:19;3.03;;;1.50;;
66542;SDS011;53395;37.360;-122.046;2022-11-11T10:30:49;4.00;;;1.60;;
66542;SDS011;53395;37.360;-122.046;2022-11-11T10:33:29;3.70;;;1.70;;
66542;SDS011;53395;37.360;-122.046;2022-11-11T10:36:05;3.38;;;1.40;;
66542;SDS011;53395;37.360;-122.046;2022-11-11T10:41:47;2.53;;;1.55;;
66542;SDS011;53395;37.360;-122.046;2022-11-11T10:44:19;3.58;;;1.77;;
66542;SDS011;53395;37.360;-122.046;2022-11-11T10:49:56;8.25;;;1.80;;
66542;SDS011;53395;37.360;-122.046;2022-11-11T10:52:40;2.65;;;1.60;;
66542;SDS011;53395;37.360;-122.046;2022-11-11T10:55:20;2.60;;;1.50;;
66542;SDS011;53395;37.360;-122.046;2022-11-11T10:57:54;2.88;;;1.52;;
66542;SDS011;53395;37.360;-122.046;2022-11-11T11:00:26;2.85;;;1.40;;
66542;SDS011;53395;37.360;-122.046;2022-11-11T11:05:45;2.58;;;1.60;;
66542;SDS011;53395;37.360;-122.046;2022-11-11T11:08:19;2.88;;;1.70;;
66542;SDS011;53395;37.360;-122.046;2022-11-11T11:10:56;2.58;;;1.85;;
66542;SDS011;53395;37.360;-122.046;2022-11-11T11:13:42;3.10;;;1.48;;
66542;SDS011;53395;37.360;-122.046;2022-11-11T11:16:18;3.38;;;1.70;;
66542;SDS011;53395;37.360;-122.046;2022-11-11T11:22:08;6.07;;;1.70;;
66542;SDS011;53395;37.360;-122.046;2022-11-11T11:24:35;2.92;;;1.88;;
66542;SDS011;53395;37.360;-122.046;2022-11-11T11:27:03;2.88;;;1.70;;
66542;SDS011;53395;37.360;-122.046;2022-11-11T11:29:33;2.55;;;1.52;;
66542;SDS011;53395;37.360;-122.046;2022-11-11T11:32:16;2.67;;;1.65;;
66542;SDS011;53395;37.360;-122.046;2022-11-11T11:34:52;3.03;;;1.73;;
66542;SDS011;53395;37.360;-122.046;2022-11-11T11:37:21;3.03;;;1.83;;
66542;SDS011;53395;37.360;-122.046;2022-11-11T11:39:57;2.80;;;1.65;;
66542;SDS011;53395;37.360;-122.046;2022-11-11T11:42:29;3.20;;;1.92;;
66542;SDS011;53395;37.360;-122.046;2022-11-11T11:45:15;3.88;;;1.77;;
66542;SDS011;53395;37.360;-122.046;2022-11-11T11:58:36;4.85;;;1.70;;
66542;SDS011;53395;37.360;-122.046;2022-11-11T12:09:16;2.90;;;1.80;;
66542;SDS011;53395;37.360;-122.046;2022-11-11T12:17:25;5.85;;;1.92;;
66542;SDS011;53395;37.360;-122.046;2022-11-11T12:25:28;4.13;;;1.92;;
66542;SDS011;53395;37.360;-122.046;2022-11-11T12:37:42;4.00;;;2.10;;
66542;SDS011;53395;37.360;-122.046;2022-11-11T12:40:26;3.55;;;1.90;;
66542;SDS011;53395;37.360;-122.046;2022-11-11T12:45:58;5.28;;;1.92;;
66542;SDS011;53395;37.360;-122.046;2022-11-11T12:48:43;4.35;;;2.10;;
66542;SDS011;53395;37.360;-122.046;2022-11-11T12:57:14;3.20;;;1.73;;
66542;SDS011;53395;37.360;-122.046;2022-11-11T13:02:52;3.67;;;1.70;;
66542;SDS011;53395;37.360;-122.046;2022-11-11T13:11:25;6.30;;;1.70;;
66542;SDS011;53395;37.360;-122.046;2022-11-11T13:16:59;3.60;;;1.75;;
66542;SDS011;53395;37.360;-122.046;2022-11-11T13:19:40;3.10;;;1.90;;
66542;SDS011;53395;37.360;-122.046;2022-11-11T13:22:22;3.63;;;1.88;;
66542;SDS011;53395;37.360;-122.046;2022-11-11T13:24:51;2.50;;;1.75;;
66542;SDS011;53395;37.360;-122.046;2022-11-11T13:27:24;2.60;;;1.65;;
66542;SDS011;53395;37.360;-122.046;2022-11-11T13:32:38;2.20;;;1.60;;
66542;SDS011;53395;37.360;-122.046;2022-11-11T13:35:26;3.33;;;1.70;;
66542;SDS011;53395;37.360;-122.046;2022-11-11T13:38:08;3.88;;;1.70;;
66542;SDS011;53395;37.360;-122.046;2022-11-11T13:40:53;4.03;;;1.98;;
66542;SDS011;53395;37.360;-122.046;2022-11-11T13:46:02;2.55;;;1.48;;
66542;SDS011;53395;37.360;-122.046;2022-11-11T13:48:31;3.22;;;1.80;;
66542;SDS011;53395;37.360;-122.046;2022-11-11T13:54:18;4.50;;;1.60;;
66542;SDS011;53395;37.360;-122.046;2022-11-11T13:57:00;4.72;;;1.75;;
66542;SDS011;53395;37.360;-122.046;2022-11-11T13:59:48;3.83;;;1.98;;
66542;SDS011;53395;37.360;-122.046;2022-11-11T14:02:39;2.83;;;1.80;;
66542;SDS011;53395;37.360;-122.046;2022-11-11T14:07:53;2.70;;;1.70;;
66542;SDS011;53395;37.360;-122.046;2022-11-11T14:18:48;3.40;;;1.60;;
66542;SDS011;53395;37.360;-122.046;2022-11-11T14:20:50;2.72;;;2.20;;
66542;SDS011;53395;37.360;-122.046;2022-11-11T14:23:22;3.10;;;2.05;;
66542;SDS011;53395;37.360;-122.046;2022-11-11T14:31:42;3.53;;;2.10;;
66542;SDS011;53395;37.360;-122.046;2022-11-11T14:34:41;6.57;;;2.35;;
66542;SDS011;53395;37.360;-122.046;2022-11-11T14:37:20;2.70;;;2.00;;
66542;SDS011;53395;37.360;-122.046;2022-11-11T14:40:09;2.90;;;2.03;;
66542;SDS011;53395;37.360;-122.046;2022-11-11T14:45:49;2.47;;;1.80;;
66542;SDS011;53395;37.360;-122.046;2022-11-11T14:47:54;4.00;;;2.30;;
66542;SDS011;53395;37.360;-122.046;2022-11-11T14:52:55;3.90;;;2.25;;
66542;SDS011;53395;37.360;-122.046;2022-11-11T14:57:58;5.85;;;2.35;;
66542;SDS011;53395;37.360;-122.046;2022-11-11T15:00:32;3.75;;;2.40;;
66542;SDS011;53395;37.360;-122.046;2022-11-11T15:03:09;4.38;;;2.30;;
66542;SDS011;53395;37.360;-122.046;2022-11-11T15:09:10;2.97;;;2.25;;
66542;SDS011;53395;37.360;-122.046;2022-11-11T15:12:53;6.43;;;2.83;;
66542;SDS011;53395;37.360;-122.046;2022-11-11T15:18:24;4.03;;;2.67;;
66542;SDS011;53395;37.360;-122.046;2022-11-11T15:21:34;5.35;;;2.92;;
66542;SDS011;53395;37.360;-122.046;2022-11-11T15:32:30;4.32;;;3.10;;
66542;SDS011;53395;37.360;-122.046;2022-11-11T15:38:10;5.38;;;3.05;;
66542;SDS011;53395;37.360;-122.046;2022-11-11T15:40:46;4.03;;;2.85;;
66542;SDS011;53395;37.360;-122.046;2022-11-11T15:43:16;5.18;;;3.00;;
66542;SDS011;53395;37.360;-122.046;2022-11-11T15:45:45;4.25;;;2.97;;
66542;SDS011;53395;37.360;-122.046;2022-11-11T15:48:17;6.38;;;3.17;;
66542;SDS011;53395;37.360;-122.046;2022-11-11T15:50:46;5.47;;;3.38;;
66542;SDS011;53395;37.360;-122.046;2022-11-11T15:53:13;4.50;;;3.53;;
66542;SDS011;53395;37.360;-122.046;2022-11-11T15:55:50;5.82;;;3.38;;
66542;SDS011;53395;37.360;-122.046;2022-11-11T15:58:28;5.30;;;3.13;;
66542;SDS011;53395;37.360;-122.046;2022-11-11T16:00:57;4.00;;;2.70;;
66542;SDS011;53395;37.360;-122.046;2022-11-11T16:03:38;4.97;;;2.60;;
66542;SDS011;53395;37.360;-122.046;2022-11-11T16:06:10;8.68;;;2.35;;
66542;SDS011;53395;37.360;-122.046;2022-11-11T16:08:42;5.85;;;2.90;;
66542;SDS011;53395;37.360;-122.046;2022-11-11T16:11:13;8.10;;;4.07;;
66542;SDS011;53395;37.360;-122.046;2022-11-11T16:13:44;6.47;;;3.55;;
66542;SDS011;53395;37.360;-122.046;2022-11-11T16:16:19;4.55;;;3.42;;
66542;SDS011;53395;37.360;-122.046;2022-11-11T16:18:56;5.40;;;3.15;;
66542;SDS011;53395;37.360;-122.046;2022-11-11T16:23:54;5.47;;;3.38;;
66542;SDS011;53395;37.360;-122.046;2022-11-11T16:26:22;7.70;;;3.58;;
66542;SDS011;53395;37.360;-122.046;2022-11-11T16:28:55;8.27;;;3.80;;
66542;SDS011;53395;37.360;-122.046;2022-11-11T16:37:01;8.75;;;3.92;;
66542;SDS011;53395;37.360;-122.046;2022-11-11T16:39:32;6.30;;;3.50;;
66542;SDS011;53395;37.360;-122.046;2022-11-11T16:41:59;11.68;;;3.40;;
66542;SDS011;53395;37.360;-122.046;2022-11-11T16:47:00;7.18;;;2.92;;
66542;SDS011;53395;37.360;-122.046;2022-11-11T16:52:06;5.22;;;3.72;;
66542;SDS011;53395;37.360;-122.046;2022-11-11T16:54:38;6.93;;;3.55;;
66542;SDS011;53395;37.360;-122.046;2022-11-11T16:57:14;5.50;;;3.95;;
66542;SDS011;53395;37.360;-122.046;2022-11-11T16:59:45;8.00;;;3.03;;
66542;SDS011;53395;37.360;-122.046;2022-11-11T17:02:17;8.82;;;3.72;;
66542;SDS011;53395;37.360;-122.046;2022-11-11T17:04:51;4.57;;;3.25;;
66542;SDS011;53395;37.360;-122.046;2022-11-11T17:07:30;6.70;;;3.30;;
66542;SDS011;53395;37.360;-122.046;2022-11-11T17:10:18;5.38;;;3.47;;
66542;SDS011;53395;37.360;-122.046;2022-11-11T17:12:50;5.97;;;4.10;;
66542;SDS011;53395;37.360;-122.046;2022-11-11T17:15:17;3.80;;;2.55;;
66542;SDS011;53395;37.360;-122.046;2022-11-11T17:17:45;9.00;;;3.72;;
66542;SDS011;53395;37.360;-122.046;2022-11-11T17:20:13;5.22;;;3.20;;
66542;SDS011;53395;37.360;-122.046;2022-11-11T17:22:45;29.00;;;10.82;;
66542;SDS011;53395;37.360;-122.046;2022-11-11T17:25:16;14.05;;;7.43;;
66542;SDS011;53395;37.360;-122.046;2022-11-11T17:27:42;16.45;;;8.15;;
66542;SDS011;53395;37.360;-122.046;2022-11-11T17:30:10;89.57;;;18.60;;
66542;SDS011;53395;37.360;-122.046;2022-11-11T17:32:37;26.23;;;11.80;;
66542;SDS011;53395;37.360;-122.046;2022-11-11T17:35:04;24.17;;;11.25;;
66542;SDS011;53395;37.360;-122.046;2022-11-11T17:37:34;11.88;;;7.03;;
66542;SDS011;53395;37.360;-122.046;2022-11-11T17:40:07;32.70;;;12.18;;
66542;SDS011;53395;37.360;-122.046;2022-11-11T17:42:34;6.10;;;4.00;;
66542;SDS011;53395;37.360;-122.046;2022-11-11T17:45:02;12.38;;;4.85;;
66542;SDS011;53395;37.360;-122.046;2022-11-11T17:47:29;8.57;;;3.92;;
66542;SDS011;53395;37.360;-122.046;2022-11-11T17:52:22;6.57;;;4.25;;
66542;SDS011;53395;37.360;-122.046;2022-11-11T17:57:15;120.55;;;15.30;;
66542;SDS011;53395;37.360;-122.046;2022-11-11T17:59:41;9.32;;;4.70;;